Time;durP1;ratioP1;P1;durP2;ratioP2;P2;SDS_P1;SDS_P2;PMS_P1;PMS_P2;Temp;Humidity;BMP_temperature;BMP_pressure;BME280_temperature;BME280_humidity;BME280_pressure;Samples;Min_cycle;Max_cycle;Signal;HPM_P1;HPM_P2
2021/05/22 00:00:21;;;;;;;4.32;1.00;;;11.30;99.90;;;;;;4955326;29;20390;-52
2021/05/22 00:02:47;;;;;;;5.37;1.17;;;11.30;99.90;;;;;;4954939;29;20386;-52
2021/05/22 00:05:13;;;;;;;3.30;0.70;;;11.30;99.90;;;;;;4953697;29;20456;-53
2021/05/22 00:07:38;;;;;;;5.60;1.10;;;11.30;99.90;;;;;;4954219;29;20378;-52
2021/05/22 00:10:09;;;;;;;5.10;1.20;;;11.40;99.90;;;;;;4953743;29;20385;-53
2021/05/22 00:12:35;;;;;;;5.55;1.08;;;11.30;99.90;;;;;;4954433;29;20412;-55
2021/05/22 00:15:02;;;;;;;4.30;0.90;;;11.40;99.90;;;;;;4953722;29;20890;-53
2021/05/22 00:17:27;;;;;;;6.28;1.35;;;11.40;99.90;;;;;;4954311;29;20730;-53
2021/05/22 00:19:53;;;;;;;4.50;1.00;;;11.50;99.90;;;;;;4954289;29;20382;-63
2021/05/22 00:22:19;;;;;;;8.13;1.40;;;11.40;99.90;;;;;;4954237;29;20428;-53
2021/05/22 00:24:44;;;;;;;6.60;1.37;;;11.40;99.90;;;;;;4953969;28;20428;-52
2021/05/22 00:27:10;;;;;;;6.43;1.27;;;11.40;99.90;;;;;;4953331;29;20825;-53
2021/05/22 00:29:36;;;;;;;6.10;1.70;;;11.50;99.90;;;;;;4954333;29;20414;-52
2021/05/22 00:32:01;;;;;;;3.92;1.00;;;11.40;99.90;;;;;;4953226;29;20765;-53
2021/05/22 00:34:27;;;;;;;8.80;1.40;;;11.40;99.90;;;;;;4954321;29;20382;-52
2021/05/22 00:36:53;;;;;;;4.72;1.20;;;11.30;99.90;;;;;;4954126;29;20390;-63
2021/05/22 00:39:18;;;;;;;5.00;1.10;;;11.50;99.90;;;;;;4952437;29;20414;-54
2021/05/22 00:41:44;;;;;;;4.47;1.00;;;11.30;99.90;;;;;;4954058;29;20425;-59
2021/05/22 00:44:09;;;;;;;5.95;1.25;;;11.40;99.90;;;;;;4953374;29;20436;-53
2021/05/22 00:46:35;;;;;;;4.37;1.10;;;11.40;99.90;;;;;;4953785;29;20377;-52
2021/05/22 00:49:01;;;;;;;4.70;1.10;;;11.30;99.90;;;;;;4953232;29;20430;-52
2021/05/22 00:51:27;;;;;;;5.10;1.00;;;11.30;99.90;;;;;;4953946;29;20390;-52
2021/05/22 00:53:52;;;;;;;5.70;1.10;;;11.30;99.90;;;;;;4953439;29;20449;-52
2021/05/22 00:56:18;;;;;;;5.10;1.00;;;11.30;99.90;;;;;;4953516;29;20425;-53
2021/05/22 00:58:44;;;;;;;4.30;1.20;;;11.30;99.90;;;;;;4936361;29;20818;-52
2021/05/22 01:01:09;;;;;;;6.70;1.30;;;11.30;99.90;;;;;;4935852;29;20472;-52
2021/05/22 01:03:40;;;;;;;4.43;0.95;;;11.30;99.90;;;;;;4953908;29;20397;-52
2021/05/22 01:06:24;;;;;;;4.45;1.30;;;11.20;99.90;;;;;;4953017;29;20390;-53
2021/05/22 01:08:59;;;;;;;5.10;1.10;;;11.20;99.90;;;;;;4953475;29;20386;-52
2021/05/22 01:11:28;;;;;;;4.28;1.15;;;10.00;99.90;;;;;;4953760;29;20521;-53
2021/05/22 01:14:05;;;;;;;4.60;1.40;;;11.20;99.90;;;;;;4953045;29;20976;-63
2021/05/22 01:16:32;;;;;;;3.70;1.00;;;11.10;99.90;;;;;;4953350;29;20382;-52
2021/05/22 01:19:00;;;;;;;4.10;0.90;;;11.50;99.90;;;;;;4952871;29;20390;-59
2021/05/22 01:21:26;;;;;;;4.82;1.80;;;11.10;99.90;;;;;;4953372;29;20378;-52
2021/05/22 01:23:57;;;;;;;6.35;1.70;;;11.00;99.90;;;;;;4953061;29;20397;-52
2021/05/22 01:26:26;;;;;;;3.90;1.00;;;11.00;99.90;;;;;;4936097;29;20390;-53
2021/05/22 01:28:52;;;;;;;6.10;1.20;;;10.90;99.90;;;;;;4952951;29;20417;-52
2021/05/22 01:31:18;;;;;;;5.20;1.30;;;10.90;99.90;;;;;;4952231;29;20401;-53
2021/05/22 01:33:44;;;;;;;4.15;0.90;;;10.90;99.90;;;;;;4952886;29;20545;-53
2021/05/22 01:36:10;;;;;;;5.17;1.33;;;10.90;99.90;;;;;;4951642;28;20864;-53
2021/05/22 01:38:35;;;;;;;3.70;0.80;;;10.80;99.90;;;;;;4952715;29;20397;-52
2021/05/22 01:41:02;;;;;;;4.93;1.10;;;10.50;99.90;;;;;;4952526;29;20390;-53
2021/05/22 01:43:27;;;;;;;3.88;1.00;;;10.10;99.90;;;;;;4952858;29;20393;-52
2021/05/22 01:45:55;;;;;;;6.50;1.40;;;9.80;99.90;;;;;;4953315;29;20394;-52
2021/05/22 01:48:24;;;;;;;6.00;1.38;;;9.50;99.90;;;;;;4952647;29;20390;-53
2021/05/22 01:50:59;;;;;;;3.63;0.98;;;9.40;99.90;;;;;;4952641;29;20711;-53
2021/05/22 01:53:26;;;;;;;7.40;1.20;;;9.40;99.90;;;;;;4952838;29;20422;-53
2021/05/22 01:55:52;;;;;;;3.90;1.10;;;9.50;99.90;;;;;;4952444;29;20719;-54
2021/05/22 01:58:18;;;;;;;4.88;1.08;;;9.40;99.90;;;;;;4952191;29;20397;-55
2021/05/22 02:00:45;;;;;;;6.00;1.30;;;9.40;99.90;;;;;;4952945;29;20749;-53
2021/05/22 02:03:25;;;;;;;4.40;0.90;;;9.40;99.90;;;;;;4952113;29;20790;-54
2021/05/22 02:05:56;;;;;;;6.03;1.33;;;9.40;99.90;;;;;;4952764;29;20446;-54
2021/05/22 02:08:23;;;;;;;6.03;1.30;;;9.20;99.90;;;;;;4952722;29;20374;-53
2021/05/22 02:10:50;;;;;;;5.22;1.10;;;9.10;99.90;;;;;;4952487;29;20425;-57
2021/05/22 02:13:17;;;;;;;6.13;2.30;;;9.20;99.90;;;;;;4951875;29;20422;-53
2021/05/22 02:15:51;;;;;;;5.18;1.38;;;9.20;99.90;;;;;;4952626;29;20385;-53
2021/05/22 02:18:18;;;;;;;3.90;1.10;;;9.30;99.90;;;;;;4951671;29;20382;-53
2021/05/22 02:20:46;;;;;;;4.10;1.20;;;9.20;99.90;;;;;;4952360;29;20477;-55
2021/05/22 02:23:14;;;;;;;4.53;1.00;;;9.00;99.90;;;;;;4951951;29;20908;-53
2021/05/22 02:25:40;;;;;;;6.05;0.80;;;8.90;99.90;;;;;;4952174;29;20398;-53
2021/05/22 02:28:08;;;;;;;4.75;1.00;;;8.80;99.90;;;;;;4951581;29;20390;-52
2021/05/22 02:30:37;;;;;;;4.78;1.10;;;8.80;99.90;;;;;;4952495;29;20475;-54
2021/05/22 02:33:04;;;;;;;3.95;0.82;;;8.90;99.90;;;;;;4951725;29;20421;-53
2021/05/22 02:35:31;;;;;;;2.88;0.60;;;8.90;99.90;;;;;;4952357;29;20397;-53
2021/05/22 02:37:57;;;;;;;2.75;0.63;;;8.90;99.90;;;;;;4951789;29;20386;-63
2021/05/22 02:40:27;;;;;;;3.28;0.80;;;8.80;99.90;;;;;;4952510;29;20393;-52
2021/05/22 02:43:00;;;;;;;3.30;0.80;;;8.70;99.90;;;;;;4951936;29;20510;-52
2021/05/22 02:45:28;;;;;;;4.15;0.75;;;8.70;99.90;;;;;;4952178;29;20465;-52
2021/05/22 02:47:56;;;;;;;3.22;0.70;;;8.70;99.90;;;;;;4952207;29;20394;-52
2021/05/22 02:50:23;;;;;;;4.70;1.00;;;8.70;99.90;;;;;;4952125;29;20445;-52
2021/05/22 02:52:51;;;;;;;4.00;0.90;;;8.70;99.90;;;;;;4951923;29;20413;-52
2021/05/22 02:55:17;;;;;;;4.18;1.00;;;8.80;99.90;;;;;;4951265;29;20397;-52
2021/05/22 02:57:44;;;;;;;3.10;0.88;;;8.70;99.90;;;;;;4952019;29;20381;-53
2021/05/22 03:00:10;;;;;;;3.10;0.80;;;8.80;99.90;;;;;;4951418;29;20919;-52
2021/05/22 03:02:38;;;;;;;3.50;0.90;;;8.80;99.90;;;;;;4951557;29;20394;-53
2021/05/22 03:05:05;;;;;;;2.80;0.70;;;8.80;99.90;;;;;;4951308;29;20421;-52
2021/05/22 03:07:33;;;;;;;4.30;1.20;;;8.80;99.90;;;;;;4934631;29;20702;-52
2021/05/22 03:09:59;;;;;;;3.63;0.90;;;8.80;99.90;;;;;;4934066;29;20941;-66
2021/05/22 03:12:30;;;;;;;3.90;1.00;;;8.90;99.90;;;;;;4950706;29;20414;-53
2021/05/22 03:14:56;;;;;;;3.25;0.90;;;8.90;99.90;;;;;;4951524;29;20394;-66
2021/05/22 03:17:22;;;;;;;3.50;0.80;;;9.00;99.90;;;;;;4951157;29;20473;-53
2021/05/22 03:19:47;;;;;;;3.40;0.80;;;9.10;99.90;;;;;;4951668;29;20390;-53
2021/05/22 03:22:13;;;;;;;3.00;0.80;;;9.00;99.90;;;;;;4950940;29;20390;-52
2021/05/22 03:24:39;;;;;;;5.60;1.00;;;9.00;99.90;;;;;;4951848;29;20417;-52
2021/05/22 03:27:05;;;;;;;5.17;0.90;;;9.00;99.90;;;;;;4951010;29;20417;-52
2021/05/22 03:29:31;;;;;;;3.25;0.80;;;9.00;99.90;;;;;;4949990;29;20761;-52
2021/05/22 03:31:57;;;;;;;3.70;0.90;;;9.10;99.90;;;;;;4951622;29;20382;-66
2021/05/22 03:34:23;;;;;;;4.47;0.90;;;9.10;99.90;;;;;;4951345;29;20426;-52
2021/05/22 03:36:49;;;;;;;3.15;1.02;;;9.10;99.90;;;;;;4951409;29;20400;-52
2021/05/22 03:39:14;;;;;;;3.50;1.07;;;9.10;99.90;;;;;;4950425;29;20480;-52
2021/05/22 03:41:40;;;;;;;3.70;0.95;;;9.20;99.90;;;;;;4951736;29;20378;-52
2021/05/22 03:44:06;;;;;;;5.00;1.02;;;9.30;99.90;;;;;;4951048;29;20394;-52
2021/05/22 03:46:32;;;;;;;4.97;1.20;;;9.40;99.90;;;;;;4951590;29;20396;-52
2021/05/22 03:48:58;;;;;;;5.03;1.27;;;9.40;99.90;;;;;;4951211;29;20468;-66
2021/05/22 03:51:24;;;;;;;5.13;1.10;;;9.40;99.90;;;;;;4950732;29;20393;-52
2021/05/22 03:53:49;;;;;;;4.23;1.30;;;9.40;99.90;;;;;;4951168;29;20429;-52
2021/05/22 03:56:15;;;;;;;4.20;1.20;;;9.30;99.90;;;;;;4950762;29;20402;-52
2021/05/22 03:58:41;;;;;;;5.63;1.50;;;9.40;99.90;;;;;;4951572;28;20398;-52
2021/05/22 04:01:07;;;;;;;4.10;1.40;;;9.50;99.90;;;;;;4954123;29;20393;-53
2021/05/22 04:03:32;;;;;;;5.93;1.40;;;9.50;99.90;;;;;;4953755;29;20389;-52
2021/05/22 04:05:58;;;;;;;4.50;1.33;;;9.50;99.90;;;;;;4954549;29;20394;-66
2021/05/22 04:08:24;;;;;;;5.80;1.50;;;9.60;99.90;;;;;;4954286;29;20397;-53
2021/05/22 04:10:49;;;;;;;4.67;1.20;;;9.60;99.90;;;;;;4954849;29;20386;-52
2021/05/22 04:13:15;;;;;;;6.65;1.50;;;9.60;99.90;;;;;;4953474;29;20508;-52
2021/05/22 04:15:41;;;;;;;3.67;1.20;;;9.80;99.90;;;;;;4954751;29;20420;-57
2021/05/22 04:18:09;;;;;;;7.50;1.20;;;9.80;99.90;;;;;;4953997;29;20386;-52
2021/05/22 04:20:36;;;;;;;4.30;1.20;;;9.80;99.90;;;;;;4954625;29;20386;-51
2021/05/22 04:23:02;;;;;;;5.40;1.40;;;9.80;99.90;;;;;;4953810;29;20461;-65
2021/05/22 04:25:27;;;;;;;4.90;1.20;;;9.90;99.90;;;;;;4954388;29;20477;-51
2021/05/22 04:27:53;;;;;;;4.45;1.23;;;9.90;99.90;;;;;;4954403;29;20477;-51
2021/05/22 04:30:20;;;;;;;6.77;1.30;;;10.00;99.90;;;;;;4953638;29;20462;-62
2021/05/22 04:32:45;;;;;;;3.53;0.90;;;10.00;99.90;;;;;;4937215;29;20920;-51
2021/05/22 04:35:11;;;;;;;3.93;1.00;;;10.00;99.90;;;;;;4953388;29;20595;-52
2021/05/22 04:37:37;;;;;;;3.92;1.30;;;10.00;99.90;;;;;;4954479;29;20436;-51
2021/05/22 04:40:04;;;;;;;5.10;1.20;;;9.90;99.90;;;;;;4953634;29;20405;-52
2021/05/22 04:42:30;;;;;;;5.10;1.23;;;9.90;99.90;;;;;;4953964;29;20949;-51
2021/05/22 04:44:56;;;;;;;3.50;1.03;;;9.80;99.90;;;;;;4954393;29;20485;-51
2021/05/22 04:47:22;;;;;;;5.13;1.30;;;9.70;99.90;;;;;;4953667;29;20382;-51
2021/05/22 04:49:47;;;;;;;4.30;1.27;;;9.80;99.90;;;;;;4951491;28;20402;-52
2021/05/22 04:52:13;;;;;;;6.20;1.40;;;10.00;99.90;;;;;;4954456;29;20846;-52
2021/05/22 04:54:38;;;;;;;4.00;1.00;;;10.30;99.90;;;;;;4953751;29;20413;-54
2021/05/22 04:57:05;;;;;;;4.57;1.10;;;11.10;99.90;;;;;;4952683;29;20396;-52
2021/05/22 04:59:31;;;;;;;5.55;1.02;;;12.20;99.90;;;;;;4954153;29;20850;-52
2021/05/22 05:01:56;;;;;;;6.10;1.10;;;12.90;99.90;;;;;;4953862;29;20422;-52
2021/05/22 05:04:22;;;;;;;3.70;0.90;;;13.70;99.90;;;;;;4953095;29;20891;-53
2021/05/22 05:06:48;;;;;;;5.10;1.00;;;14.10;99.90;;;;;;4954061;29;20401;-53
2021/05/22 05:09:13;;;;;;;5.50;1.20;;;14.40;99.90;;;;;;4952925;29;20382;-53
2021/05/22 05:11:39;;;;;;;4.80;1.20;;;14.60;99.90;;;;;;4952576;28;20462;-52
2021/05/22 05:14:05;;;;;;;5.43;1.20;;;13.90;99.90;;;;;;4952975;29;20516;-53
2021/05/22 05:16:31;;;;;;;4.18;0.90;;;13.20;99.90;;;;;;4953433;29;20397;-52
2021/05/22 05:18:56;;;;;;;4.32;1.30;;;12.60;99.90;;;;;;4953230;29;20390;-53
2021/05/22 05:21:22;;;;;;;4.30;0.80;;;12.40;99.90;;;;;;4960345;28;20399;-60
2021/05/22 05:23:48;;;;;;;4.63;0.90;;;13.30;99.90;;;;;;4961909;28;20691;-59
2021/05/22 05:26:14;;;;;;;4.10;1.10;;;14.00;99.90;;;;;;4951717;28;20428;-58
2021/05/22 05:28:40;;;;;;;4.60;1.15;;;15.00;99.90;;;;;;4963275;28;20402;-58
2021/05/22 05:31:06;;;;;;;4.30;1.00;;;15.20;99.90;;;;;;4960075;28;20409;-59
2021/05/22 05:33:32;;;;;;;4.63;1.00;;;15.10;99.90;;;;;;4962650;28;20518;-58
2021/05/22 05:35:57;;;;;;;4.70;1.10;;;15.00;99.90;;;;;;4961992;28;20488;-62
2021/05/22 05:38:23;;;;;;;4.13;1.20;;;15.70;99.90;;;;;;4957556;28;20389;-58
2021/05/22 05:40:49;;;;;;;7.20;0.90;;;16.90;99.90;;;;;;4963899;28;20750;-61
2021/05/22 05:43:18;;;;;;;3.80;0.90;;;17.70;99.90;;;;;;4959038;28;20398;-59
2021/05/22 05:45:44;;;;;;;4.40;1.08;;;17.70;99.90;;;;;;4960539;28;20433;-59
2021/05/22 05:48:10;;;;;;;4.55;1.00;;;18.50;99.90;;;;;;4959116;28;20901;-57
2021/05/22 05:50:35;;;;;;;4.00;1.15;;;18.40;99.90;;;;;;4958956;28;20386;-59
2021/05/22 05:53:02;;;;;;;4.50;0.90;;;18.80;99.90;;;;;;4955814;28;20412;-63
2021/05/22 05:55:28;;;;;;;4.20;1.40;;;18.40;99.90;;;;;;4954966;28;20907;-59
2021/05/22 05:57:55;;;;;;;4.25;1.20;;;17.90;99.90;;;;;;4964389;28;20407;-60
2021/05/22 06:00:22;;;;;;;4.07;0.80;;;18.30;99.90;;;;;;4970999;28;20476;-60
2021/05/22 06:02:47;;;;;;;4.88;1.15;;;17.80;99.90;;;;;;4954020;28;20390;-60
2021/05/22 06:05:13;;;;;;;4.65;1.15;;;17.80;99.90;;;;;;4951249;29;20441;-60
2021/05/22 06:07:40;;;;;;;6.60;1.30;;;18.30;99.90;;;;;;4952248;29;20388;-60
2021/05/22 06:10:06;;;;;;;5.33;1.10;;;18.00;99.90;;;;;;4958824;28;20406;-61
2021/05/22 06:12:33;;;;;;;4.33;1.13;;;18.70;99.90;;;;;;4971532;28;20491;-60
2021/05/22 06:15:08;;;;;;;5.25;1.10;;;19.20;99.90;;;;;;4960932;28;20487;-54
2021/05/22 06:17:34;;;;;;;6.13;1.17;;;19.50;99.90;;;;;;4951871;29;20452;-53
2021/05/22 06:19:59;;;;;;;4.25;1.27;;;18.30;99.90;;;;;;4951355;29;20873;-66
2021/05/22 06:22:25;;;;;;;5.60;1.20;;;18.60;99.90;;;;;;4951479;28;20783;-53
2021/05/22 06:24:51;;;;;;;6.20;1.20;;;18.60;98.90;;;;;;4951791;29;20432;-53
2021/05/22 06:27:16;;;;;;;5.70;1.20;;;18.30;99.90;;;;;;4959401;28;20430;-54
2021/05/22 06:29:42;;;;;;;5.60;1.33;;;18.80;98.80;;;;;;4970080;28;21007;-58
2021/05/22 06:32:07;;;;;;;5.20;1.30;;;18.20;99.90;;;;;;4970317;28;20475;-54
2021/05/22 06:34:34;;;;;;;5.20;1.30;;;16.10;99.90;;;;;;4971024;28;20479;-56
2021/05/22 06:37:00;;;;;;;4.38;1.13;;;16.40;99.90;;;;;;4971123;28;20470;-67
2021/05/22 06:39:26;;;;;;;4.53;1.25;;;17.40;99.90;;;;;;4960545;28;20404;-53
2021/05/22 06:41:52;;;;;;;5.10;1.30;;;16.90;99.90;;;;;;4963202;28;20422;-54
2021/05/22 06:44:32;;;;;;;7.43;1.30;;;16.10;99.90;;;;;;4959817;28;20412;-53
2021/05/22 06:46:58;;;;;;;5.43;1.13;;;16.10;99.90;;;;;;4962506;28;20384;-53
2021/05/22 06:49:23;;;;;;;5.68;1.42;;;15.10;99.90;;;;;;4967284;28;20420;-55
2021/05/22 06:51:50;;;;;;;6.90;1.30;;;14.90;99.90;;;;;;4959927;28;20382;-58
2021/05/22 06:54:15;;;;;;;6.10;1.30;;;15.00;99.90;;;;;;4962351;28;20421;-53
2021/05/22 06:56:41;;;;;;;4.70;1.30;;;15.00;99.90;;;;;;4965403;28;20760;-57
2021/05/22 06:59:07;;;;;;;5.88;2.10;;;14.40;99.90;;;;;;4969596;28;20406;-53
2021/05/22 07:01:32;;;;;;;4.90;1.20;;;13.90;99.90;;;;;;4963730;28;20401;-53
2021/05/22 07:03:58;;;;;;;4.87;1.20;;;13.70;99.90;;;;;;4960150;28;20394;-54
2021/05/22 07:06:24;;;;;;;8.20;1.60;;;13.50;99.90;;;;;;4958489;28;20451;-53
2021/05/22 07:08:54;;;;;;;6.00;1.25;;;13.70;99.90;;;;;;4953511;28;20659;-54
2021/05/22 07:11:21;;;;;;;6.57;1.80;;;13.80;99.90;;;;;;4950851;29;20398;-57
2021/05/22 07:13:47;;;;;;;4.40;1.20;;;14.10;99.90;;;;;;4951388;29;20488;-54
2021/05/22 07:16:12;;;;;;;5.80;1.30;;;15.20;99.90;;;;;;4950374;29;20489;-57
2021/05/22 07:18:38;;;;;;;5.63;1.45;;;16.20;99.90;;;;;;4951211;29;20511;-54
2021/05/22 07:21:04;;;;;;;6.10;1.38;;;18.70;99.90;;;;;;4950648;29;20394;-57
2021/05/22 07:23:30;;;;;;;5.80;1.00;;;17.90;99.90;;;;;;4951123;29;20877;-54
2021/05/22 07:25:55;;;;;;;6.07;1.70;;;18.20;99.90;;;;;;4951069;29;20434;-60
2021/05/22 07:28:21;;;;;;;5.28;1.42;;;18.30;99.80;;;;;;4950517;29;20472;-60
2021/05/22 07:30:47;;;;;;;6.43;1.30;;;19.10;97.50;;;;;;4950662;28;20452;-59
2021/05/22 07:33:14;;;;;;;5.73;1.27;;;19.10;96.60;;;;;;4953255;28;20418;-60
2021/05/22 07:35:40;;;;;;;5.85;1.30;;;18.50;97.20;;;;;;4964301;28;20399;-60
2021/05/22 07:38:05;;;;;;;4.95;1.20;;;18.90;96.60;;;;;;4963929;28;20469;-60
2021/05/22 07:40:31;;;;;;;6.60;1.92;;;17.40;96.40;;;;;;4962746;28;20374;-60
2021/05/22 07:42:57;;;;;;;6.00;1.23;;;16.50;98.90;;;;;;4964928;28;20442;-59
2021/05/22 07:45:22;;;;;;;4.30;1.10;;;16.30;99.90;;;;;;4963065;28;20482;-60
2021/05/22 07:47:48;;;;;;;5.90;1.20;;;16.70;99.90;;;;;;4963694;28;20444;-58
2021/05/22 07:50:15;;;;;;;5.50;1.30;;;17.10;99.90;;;;;;4970183;28;20899;-60
2021/05/22 07:52:41;;;;;;;4.38;1.10;;;16.60;99.60;;;;;;4973402;28;20398;-59
2021/05/22 07:55:11;;;;;;;7.43;1.40;;;15.90;99.90;;;;;;4972147;28;20392;-59
2021/05/22 07:57:37;;;;;;;4.60;1.30;;;15.40;99.90;;;;;;4956379;28;20403;-59
2021/05/22 08:00:07;;;;;;;4.65;1.30;;;17.10;99.90;;;;;;4973167;28;20596;-67
2021/05/22 08:02:33;;;;;;;6.03;1.20;;;18.70;99.10;;;;;;4973498;28;20428;-62
2021/05/22 08:04:58;;;;;;;5.88;1.30;;;19.10;95.30;;;;;;4970443;28;20879;-59
2021/05/22 08:07:24;;;;;;;5.13;1.10;;;18.60;93.80;;;;;;4972758;28;20396;-55
2021/05/22 08:09:49;;;;;;;6.30;1.30;;;18.30;95.60;;;;;;4973576;28;20483;-54
2021/05/22 08:12:15;;;;;;;5.00;1.20;;;18.60;95.00;;;;;;4972709;28;20783;-55
2021/05/22 08:14:41;;;;;;;5.70;1.23;;;18.20;95.00;;;;;;4973308;28;20895;-55
2021/05/22 08:17:06;;;;;;;7.40;1.52;;;19.00;95.10;;;;;;4972720;28;20512;-60
2021/05/22 08:19:32;;;;;;;4.63;0.90;;;19.60;88.20;;;;;;4973582;28;20450;-54
2021/05/22 08:21:58;;;;;;;7.20;1.20;;;18.20;88.00;;;;;;4972745;28;20392;-54
2021/05/22 08:24:24;;;;;;;4.80;1.20;;;18.40;90.00;;;;;;4972042;28;20759;-54
2021/05/22 08:26:50;;;;;;;5.97;1.00;;;19.00;84.80;;;;;;4972755;28;20388;-55
2021/05/22 08:29:15;;;;;;;4.78;1.13;;;19.40;89.80;;;;;;4972082;28;20420;-56
2021/05/22 08:31:41;;;;;;;5.10;0.93;;;18.90;90.10;;;;;;4973221;28;20431;-57
2021/05/22 08:34:07;;;;;;;5.90;1.20;;;18.10;89.90;;;;;;4972115;28;20466;-55
2021/05/22 08:36:33;;;;;;;6.00;1.20;;;18.40;91.60;;;;;;4973567;28;20740;-55
2021/05/22 08:39:00;;;;;;;6.25;0.90;;;18.80;86.30;;;;;;4972895;28;20386;-55
2021/05/22 08:41:26;;;;;;;6.83;1.00;;;19.10;82.00;;;;;;4972085;28;20878;-54
2021/05/22 08:43:51;;;;;;;5.38;1.40;;;18.40;82.00;;;;;;4972812;28;20446;-54
2021/05/22 08:46:18;;;;;;;4.40;1.00;;;19.40;85.50;;;;;;4972214;28;20396;-56
2021/05/22 08:48:47;;;;;;;4.00;0.93;;;19.30;84.60;;;;;;4954497;28;20501;-56
2021/05/22 08:51:13;;;;;;;4.70;1.00;;;19.50;80.00;;;;;;4963177;28;20436;-57
2021/05/22 08:53:38;;;;;;;6.10;1.10;;;20.10;80.80;;;;;;4969983;28;20884;-55
2021/05/22 08:56:05;;;;;;;4.60;1.40;;;20.10;73.80;;;;;;4962566;28;20420;-62
2021/05/22 08:58:30;;;;;;;4.40;0.90;;;19.90;69.30;;;;;;4967050;28;20408;-56
2021/05/22 09:00:57;;;;;;;6.20;1.20;;;19.80;72.90;;;;;;4965090;28;20446;-56
2021/05/22 09:03:23;;;;;;;6.43;0.95;;;20.20;76.50;;;;;;4963884;28;20620;-57
2021/05/22 09:05:49;;;;;;;4.47;1.08;;;21.60;71.20;;;;;;4972392;28;20392;-56
2021/05/22 09:08:15;;;;;;;5.78;0.90;;;21.00;64.60;;;;;;4948293;28;20553;-55
2021/05/22 09:10:47;;;;;;;7.00;1.20;;;21.50;68.70;;;;;;4963362;28;20380;-57
2021/05/22 09:13:19;;;;;;;4.80;1.10;;;21.60;66.50;;;;;;4960044;28;20429;-56
2021/05/22 09:15:46;;;;;;;5.00;1.10;;;21.50;64.70;;;;;;4960420;28;20404;-56
2021/05/22 09:18:17;;;;;;;5.75;1.20;;;21.50;62.90;;;;;;4965849;28;20400;-55
2021/05/22 09:20:51;;;;;;;4.10;0.90;;;20.80;61.70;;;;;;4963663;28;20422;-54
2021/05/22 09:23:21;;;;;;;5.60;0.93;;;20.30;63.10;;;;;;4961343;28;20449;-56
2021/05/22 09:25:55;;;;;;;4.53;1.00;;;19.90;66.80;;;;;;4961776;28;20447;-56
2021/05/22 09:28:27;;;;;;;5.80;0.93;;;19.80;62.30;;;;;;4964415;28;20408;-56
2021/05/22 09:30:53;;;;;;;3.90;0.90;;;19.30;63.90;;;;;;4959634;28;20438;-56
2021/05/22 09:33:24;;;;;;;6.80;1.15;;;20.50;62.10;;;;;;4957211;28;20418;-56
2021/05/22 09:36:02;;;;;;;4.10;1.00;;;20.20;59.10;;;;;;4961808;28;20432;-57
2021/05/22 09:38:43;;;;;;;5.75;1.15;;;20.60;59.00;;;;;;4959675;28;20421;-55
2021/05/22 09:41:27;;;;;;;4.45;1.15;;;21.10;58.70;;;;;;4957680;28;20404;-55
2021/05/22 09:44:16;;;;;;;7.37;1.10;;;21.10;57.50;;;;;;4958946;28;20482;-56
2021/05/22 09:46:45;;;;;;;6.40;1.00;;;20.40;57.20;;;;;;4958016;28;20893;-60
2021/05/22 09:49:19;;;;;;;5.88;1.00;;;20.30;55.80;;;;;;4961092;28;20407;-56
2021/05/22 09:52:03;;;;;;;5.60;1.20;;;20.20;56.60;;;;;;4965466;28;20703;-57
2021/05/22 09:54:51;;;;;;;5.97;0.90;;;20.30;58.00;;;;;;4962213;28;20923;-56
2021/05/22 09:57:18;;;;;;;4.70;1.10;;;20.60;58.00;;;;;;4959437;28;20984;-58
2021/05/22 10:00:19;;;;;;;5.38;1.00;;;21.10;57.80;;;;;;4965626;28;20414;-56
2021/05/22 10:02:49;;;;;;;5.63;1.00;;;19.90;58.20;;;;;;4966200;28;20466;-56
2021/05/22 10:05:18;;;;;;;5.18;1.10;;;20.20;58.90;;;;;;4961006;28;20788;-57
2021/05/22 10:07:45;;;;;;;4.70;1.50;;;20.00;58.80;;;;;;4960151;28;20413;-57
2021/05/22 10:10:12;;;;;;;7.00;1.40;;;19.50;59.30;;;;;;4955618;28;20386;-58
2021/05/22 10:12:39;;;;;;;5.00;1.00;;;19.30;59.60;;;;;;4962303;28;20453;-56
2021/05/22 10:15:08;;;;;;;4.70;1.10;;;19.00;62.30;;;;;;4957355;28;20542;-62
2021/05/22 10:17:34;;;;;;;4.00;1.20;;;18.40;58.80;;;;;;4962481;28;20398;-55
2021/05/22 10:20:00;;;;;;;6.07;1.27;;;18.40;60.60;;;;;;4958495;28;20389;-54
2021/05/22 10:22:25;;;;;;;6.20;1.10;;;18.40;63.10;;;;;;4958694;28;21011;-55
2021/05/22 10:24:56;;;;;;;5.70;1.20;;;18.80;58.20;;;;;;4959235;28;20395;-54
2021/05/22 10:27:23;;;;;;;6.00;0.90;;;18.90;58.50;;;;;;4959728;28;20400;-56
2021/05/22 10:29:49;;;;;;;4.72;0.90;;;19.00;59.10;;;;;;4958091;28;20429;-55
2021/05/22 10:32:21;;;;;;;4.23;0.90;;;18.50;57.30;;;;;;4941595;28;20888;-55
2021/05/22 10:34:48;;;;;;;4.00;0.90;;;18.90;58.80;;;;;;4961264;28;20402;-55
2021/05/22 10:37:43;;;;;;;3.65;0.80;;;18.20;59.20;;;;;;4958008;28;20915;-56
2021/05/22 10:40:09;;;;;;;5.38;0.80;;;18.00;58.40;;;;;;4960370;28;20488;-57
2021/05/22 10:42:35;;;;;;;4.72;0.95;;;18.30;58.10;;;;;;4961821;28;20870;-55
2021/05/22 10:45:25;;;;;;;5.35;1.10;;;17.80;56.60;;;;;;4960107;28;20409;-55
2021/05/22 10:47:51;;;;;;;3.80;0.80;;;17.70;55.20;;;;;;4947681;28;20459;-55
2021/05/22 10:50:47;;;;;;;5.13;1.08;;;17.50;55.90;;;;;;4957740;28;20400;-55
2021/05/22 10:53:21;;;;;;;3.90;0.90;;;18.20;56.10;;;;;;4961216;28;20413;-55
2021/05/22 10:56:09;;;;;;;8.02;1.08;;;18.40;53.40;;;;;;4959702;28;20885;-55
2021/05/22 10:58:58;;;;;;;4.90;1.00;;;18.10;55.10;;;;;;4958314;28;20440;-55
2021/05/22 11:01:29;;;;;;;4.20;0.80;;;18.20;53.90;;;;;;4959395;28;21246;-55
2021/05/22 11:04:14;;;;;;;4.20;1.15;;;18.40;52.50;;;;;;4962662;28;20390;-56
2021/05/22 11:06:44;;;;;;;4.15;0.80;;;19.10;52.70;;;;;;4961239;28;20418;-56
2021/05/22 11:09:25;;;;;;;6.60;1.10;;;18.60;51.20;;;;;;4959621;28;20400;-61
2021/05/22 11:11:52;;;;;;;4.85;0.80;;;18.20;51.40;;;;;;4963114;28;20396;-55
2021/05/22 11:14:42;;;;;;;3.97;0.98;;;17.90;54.10;;;;;;4963633;28;20530;-56
2021/05/22 11:17:20;;;;;;;4.20;0.80;;;18.60;54.20;;;;;;4962248;28;20417;-61
2021/05/22 11:20:00;;;;;;;4.00;0.80;;;19.30;52.50;;;;;;4968330;28;20443;-56
2021/05/22 11:22:42;;;;;;;4.70;0.73;;;19.20;51.20;;;;;;4957877;28;20444;-56
2021/05/22 11:25:07;;;;;;;5.20;0.83;;;18.90;50.80;;;;;;4961543;28;20753;-61
2021/05/22 11:30:41;;;;;;;4.50;0.88;;;19.60;53.10;;;;;;4965754;28;20452;-55
2021/05/22 11:33:11;;;;;;;4.30;1.20;;;19.80;52.00;;;;;;4962448;28;20409;-55
2021/05/22 11:35:42;;;;;;;4.65;0.90;;;19.90;52.80;;;;;;4959770;28;20393;-56
2021/05/22 11:38:10;;;;;;;4.18;0.80;;;20.30;50.80;;;;;;4961620;28;20885;-58
2021/05/22 11:40:39;;;;;;;4.15;0.88;;;19.80;53.70;;;;;;4960905;28;20771;-55
2021/05/22 11:43:20;;;;;;;5.20;0.80;;;19.10;50.70;;;;;;4964817;28;20400;-55
2021/05/22 11:45:53;;;;;;;5.20;1.00;;;18.70;53.60;;;;;;4949553;28;21000;-55
2021/05/22 11:48:33;;;;;;;4.13;0.85;;;18.90;55.10;;;;;;4964828;28;20483;-55
2021/05/22 11:51:15;;;;;;;3.55;0.90;;;18.60;51.50;;;;;;4964025;28;20478;-55
2021/05/22 11:53:42;;;;;;;3.80;0.90;;;18.90;51.60;;;;;;4969356;28;20420;-56
2021/05/22 11:56:13;;;;;;;5.60;1.00;;;19.30;51.60;;;;;;4967000;28;20408;-55
2021/05/22 11:58:41;;;;;;;5.35;0.82;;;19.10;50.80;;;;;;4961219;28;20875;-55
2021/05/22 12:01:14;;;;;;;4.90;1.00;;;19.30;51.40;;;;;;4961505;28;20459;-59
2021/05/22 12:03:40;;;;;;;5.65;1.25;;;19.60;52.70;;;;;;4958676;28;20543;-55
2021/05/22 12:06:08;;;;;;;4.28;1.00;;;18.90;50.60;;;;;;4973609;28;20399;-55
2021/05/22 12:08:35;;;;;;;4.28;0.80;;;18.90;52.10;;;;;;4954128;28;20767;-55
2021/05/22 12:11:13;;;;;;;4.00;1.10;;;19.10;51.70;;;;;;4968366;28;20393;-55
2021/05/22 12:14:14;;;;;;;4.43;1.00;;;20.40;52.20;;;;;;4957569;28;20423;-55
2021/05/22 12:16:39;;;;;;;4.10;1.15;;;19.50;50.70;;;;;;4885872;29;20447;-55
2021/05/22 12:19:14;;;;;;;6.00;1.00;;;19.50;50.70;;;;;;4943316;28;20903;-55
2021/05/22 12:21:40;;;;;;;4.30;0.80;;;19.30;48.80;;;;;;4969436;28;20415;-56
2021/05/22 12:24:11;;;;;;;7.35;1.00;;;19.50;49.50;;;;;;4962277;28;20405;-56
2021/05/22 12:26:38;;;;;;;4.33;1.10;;;19.40;50.50;;;;;;4961744;28;20405;-56
2021/05/22 12:29:05;;;;;;;4.43;0.90;;;19.00;50.90;;;;;;4968168;28;20819;-55
2021/05/22 12:31:31;;;;;;;4.10;0.80;;;19.20;51.10;;;;;;4971888;28;20396;-55
2021/05/22 12:34:08;;;;;;;4.30;0.80;;;19.30;51.30;;;;;;4959794;28;20476;-55
2021/05/22 12:36:35;;;;;;;3.83;0.80;;;19.10;50.70;;;;;;4953151;29;20728;-55
2021/05/22 12:39:11;;;;;;;5.35;1.00;;;18.90;51.00;;;;;;4967281;28;20388;-55
2021/05/22 12:41:38;;;;;;;3.95;0.68;;;19.00;50.10;;;;;;4969267;28;20397;-55
2021/05/22 12:44:07;;;;;;;4.90;1.10;;;19.00;49.60;;;;;;4960176;28;20814;-56
2021/05/22 12:46:36;;;;;;;4.47;0.63;;;19.30;49.10;;;;;;4953005;28;20979;-56
2021/05/22 12:49:19;;;;;;;4.63;0.80;;;19.20;49.70;;;;;;4964868;28;21799;-56
2021/05/22 12:52:12;;;;;;;4.50;0.80;;;19.10;50.60;;;;;;4963406;28;20549;-55
2021/05/22 12:54:37;;;;;;;3.78;0.90;;;18.70;49.50;;;;;;4966293;28;20474;-56
2021/05/22 12:57:05;;;;;;;5.70;1.10;;;18.30;51.30;;;;;;4967133;28;20832;-57